UAL1886 KIAH-KEWR
Flight info
| Callsign | UAL1886 |
|---|---|
| Flight time | 3h 0m |
| Altitude | 35000 |
| Route | LURIC8 HAWES SUTTN J29 CARIN MEMFS Q29 DORET J584 SLT FQM3 |
| Aircraft | B739/M-SDE2E3FGHIRWXY/LB1 |
Departure
| Time | 2026-04-21 14:33 |
|---|---|
| Airport | George Bush Intercontinental Airport (KIAH) |
Arrival
| Time | 2026-04-21 17:33 |
|---|---|
| Airport | Newark Liberty International Airport (KEWR) |
| Time | Latitude | Longitude | Altitude | Speed | Heading |
|---|---|---|---|---|---|
| 2026-04-21 13:55 | 29.98900 | -95.34099 | 106 ft | 0 kts | 240° |
| 2026-04-21 14:23 | 29.98901 | -95.34096 | 106 ft | 2 kts | 240° |
| 2026-04-21 14:23 | 29.98912 | -95.34075 | 106 ft | 4 kts | 242° |
| 2026-04-21 14:23 | 29.98921 | -95.34047 | 106 ft | 4 kts | 270° |
| 2026-04-21 14:23 | 29.98914 | -95.34022 | 104 ft | 4 kts | 328° |
| 2026-04-21 14:24 | 29.98890 | -95.34016 | 106 ft | 4 kts | 360° |
| 2026-04-21 14:24 | 29.98876 | -95.34016 | 105 ft | 0 kts | 360° |
| 2026-04-21 14:26 | 29.98889 | -95.34016 | 106 ft | 4 kts | 360° |
| 2026-04-21 14:26 | 29.98934 | -95.34016 | 106 ft | 8 kts | 360° |
| 2026-04-21 14:27 | 29.99000 | -95.34016 | 106 ft | 10 kts | 0° |
| 2026-04-21 14:27 | 29.99067 | -95.34018 | 106 ft | 10 kts | 346° |
| 2026-04-21 14:27 | 29.99088 | -95.34085 | 106 ft | 10 kts | 268° |
| 2026-04-21 14:27 | 29.99085 | -95.34172 | 106 ft | 13 kts | 269° |
| 2026-04-21 14:28 | 29.99084 | -95.34290 | 106 ft | 17 kts | 269° |
| 2026-04-21 14:28 | 29.99084 | -95.34431 | 106 ft | 18 kts | 270° |
| 2026-04-21 14:28 | 29.99085 | -95.34570 | 106 ft | 17 kts | 270° |
| 2026-04-21 14:28 | 29.99086 | -95.34704 | 106 ft | 16 kts | 270° |
| 2026-04-21 14:29 | 29.99086 | -95.34833 | 106 ft | 16 kts | 270° |
| 2026-04-21 14:29 | 29.99087 | -95.34956 | 106 ft | 15 kts | 270° |
| 2026-04-21 14:29 | 29.99088 | -95.35075 | 106 ft | 14 kts | 270° |
| 2026-04-21 14:29 | 29.99088 | -95.35189 | 106 ft | 14 kts | 270° |
| 2026-04-21 14:30 | 29.99089 | -95.35297 | 106 ft | 13 kts | 270° |
| 2026-04-21 14:30 | 29.99089 | -95.35402 | 106 ft | 13 kts | 270° |
| 2026-04-21 14:30 | 29.99053 | -95.35480 | 106 ft | 12 kts | 190° |
| 2026-04-21 14:30 | 29.98968 | -95.35484 | 106 ft | 12 kts | 182° |
| 2026-04-21 14:31 | 29.98899 | -95.35528 | 105 ft | 12 kts | 239° |
| 2026-04-21 14:31 | 29.98857 | -95.35609 | 105 ft | 12 kts | 239° |
| 2026-04-21 14:31 | 29.98817 | -95.35688 | 106 ft | 11 kts | 239° |
| 2026-04-21 14:31 | 29.98772 | -95.35758 | 107 ft | 11 kts | 207° |
| 2026-04-21 14:32 | 29.98699 | -95.35731 | 107 ft | 15 kts | 152° |
| 2026-04-21 14:32 | 29.98454 | -95.35581 | 106 ft | 71 kts | 152° |
| 2026-04-21 14:32 | 29.97843 | -95.35209 | 106 ft | 125 kts | 153° |
| 2026-04-21 14:32 | 29.96943 | -95.34658 | 121 ft | 163 kts | 150° |
| 2026-04-21 14:33 | 29.95929 | -95.34048 | 603 ft | 163 kts | 151° |
| 2026-04-21 14:33 | 29.94938 | -95.33420 | 1156 ft | 161 kts | 145° |
| 2026-04-21 14:33 | 29.93987 | -95.32730 | 1651 ft | 161 kts | 145° |
| 2026-04-21 14:33 | 29.93007 | -95.32041 | 2032 ft | 174 kts | 147° |
| 2026-04-21 14:34 | 29.92127 | -95.30997 | 2193 ft | 194 kts | 116° |
| 2026-04-21 14:34 | 29.91910 | -95.29380 | 2457 ft | 216 kts | 94° |
| 2026-04-21 14:34 | 29.91949 | -95.27594 | 2667 ft | 237 kts | 92° |
| 2026-04-21 14:34 | 29.91993 | -95.25909 | 3048 ft | 251 kts | 92° |
| 2026-04-21 14:35 | 29.92061 | -95.23902 | 3810 ft | 258 kts | 92° |
| 2026-04-21 14:35 | 29.92180 | -95.21825 | 4374 ft | 269 kts | 82° |
| 2026-04-21 14:35 | 29.93026 | -95.19888 | 4997 ft | 281 kts | 47° |
| 2026-04-21 14:35 | 29.94717 | -95.18749 | 5572 ft | 288 kts | 12° |
| 2026-04-21 14:36 | 29.96711 | -95.18683 | 6255 ft | 287 kts | 349° |
| 2026-04-21 14:36 | 29.98605 | -95.19387 | 6912 ft | 286 kts | 329° |
| 2026-04-21 14:36 | 30.00328 | -95.20536 | 7589 ft | 286 kts | 326° |
| 2026-04-21 14:36 | 30.02130 | -95.21523 | 8268 ft | 291 kts | 345° |
| 2026-04-21 14:37 | 30.04164 | -95.21581 | 8904 ft | 298 kts | 11° |
| 2026-04-21 14:37 | 30.06045 | -95.20639 | 9506 ft | 303 kts | 35° |
| 2026-04-21 14:37 | 30.07688 | -95.19048 | 10146 ft | 307 kts | 41° |
| 2026-04-21 14:37 | 30.09297 | -95.17322 | 10378 ft | 326 kts | 42° |
| 2026-04-21 14:38 | 30.10967 | -95.15501 | 10527 ft | 344 kts | 42° |
| 2026-04-21 14:38 | 30.12760 | -95.13538 | 10667 ft | 363 kts | 43° |
| 2026-04-21 14:38 | 30.14628 | -95.11492 | 10924 ft | 376 kts | 43° |
| 2026-04-21 14:38 | 30.16549 | -95.09383 | 11311 ft | 383 kts | 43° |
| 2026-04-21 14:39 | 30.18488 | -95.07254 | 11829 ft | 386 kts | 43° |
| 2026-04-21 14:39 | 30.20442 | -95.05109 | 12423 ft | 388 kts | 43° |
| 2026-04-21 14:39 | 30.22403 | -95.02953 | 12977 ft | 391 kts | 43° |
| 2026-04-21 14:39 | 30.24386 | -95.00774 | 13526 ft | 395 kts | 43° |
| 2026-04-21 14:40 | 30.26384 | -94.98578 | 14076 ft | 399 kts | 43° |
| 2026-04-21 14:40 | 30.28410 | -94.96350 | 14584 ft | 402 kts | 43° |
| 2026-04-21 14:40 | 30.30417 | -94.94144 | 15096 ft | 405 kts | 43° |
| 2026-04-21 14:40 | 30.32473 | -94.91889 | 15626 ft | 408 kts | 43° |
| 2026-04-21 14:41 | 30.34543 | -94.89623 | 16143 ft | 412 kts | 42° |
| 2026-04-21 14:41 | 30.36630 | -94.87337 | 16668 ft | 415 kts | 42° |
| 2026-04-21 14:41 | 30.38738 | -94.85026 | 17178 ft | 418 kts | 42° |
| 2026-04-21 14:41 | 30.41035 | -94.82952 | 17652 ft | 419 kts | 28° |
| 2026-04-21 14:42 | 30.43671 | -94.81518 | 18168 ft | 419 kts | 19° |
| 2026-04-21 14:42 | 30.46406 | -94.80277 | 18664 ft | 422 kts | 19° |
| 2026-04-21 14:42 | 30.49156 | -94.79044 | 19062 ft | 426 kts | 19° |
| 2026-04-21 14:42 | 30.51919 | -94.77784 | 19462 ft | 429 kts | 19° |
| 2026-04-21 14:43 | 30.54710 | -94.76482 | 19874 ft | 432 kts | 19° |
| 2026-04-21 14:43 | 30.57503 | -94.75155 | 20291 ft | 435 kts | 20° |
| 2026-04-21 14:43 | 30.60276 | -94.73823 | 20695 ft | 438 kts | 20° |
| 2026-04-21 14:43 | 30.63105 | -94.72455 | 21098 ft | 441 kts | 20° |
| 2026-04-21 14:44 | 30.65952 | -94.71074 | 21505 ft | 444 kts | 20° |
| 2026-04-21 14:44 | 30.68809 | -94.69687 | 21893 ft | 447 kts | 20° |
| 2026-04-21 14:44 | 30.71694 | -94.68286 | 22293 ft | 450 kts | 19° |
| 2026-04-21 14:44 | 30.74602 | -94.66873 | 22674 ft | 453 kts | 19° |
| 2026-04-21 14:45 | 30.77522 | -94.65455 | 23040 ft | 456 kts | 19° |
| 2026-04-21 14:45 | 30.80463 | -94.64026 | 23396 ft | 459 kts | 19° |
| 2026-04-21 14:45 | 30.83419 | -94.62588 | 23749 ft | 462 kts | 19° |
| 2026-04-21 14:45 | 30.86390 | -94.61142 | 24053 ft | 465 kts | 19° |
| 2026-04-21 14:46 | 30.89385 | -94.59683 | 24383 ft | 466 kts | 19° |
| 2026-04-21 14:46 | 30.92385 | -94.58221 | 24717 ft | 468 kts | 19° |
| 2026-04-21 14:46 | 30.95365 | -94.56767 | 25054 ft | 469 kts | 19° |
| 2026-04-21 14:46 | 30.98376 | -94.55298 | 25448 ft | 470 kts | 19° |
| 2026-04-21 14:47 | 31.01372 | -94.53727 | 25768 ft | 474 kts | 24° |
| 2026-04-21 14:47 | 31.04214 | -94.51688 | 26039 ft | 480 kts | 31° |
| 2026-04-21 14:47 | 31.06974 | -94.49472 | 26329 ft | 483 kts | 31° |
| 2026-04-21 14:47 | 31.09745 | -94.47221 | 26620 ft | 486 kts | 31° |
| 2026-04-21 14:48 | 31.12506 | -94.45016 | 26901 ft | 488 kts | 30° |
| 2026-04-21 14:48 | 31.15328 | -94.42808 | 27202 ft | 490 kts | 30° |
| 2026-04-21 14:48 | 31.18170 | -94.40604 | 27509 ft | 492 kts | 30° |
| 2026-04-21 14:48 | 31.21025 | -94.38388 | 27790 ft | 494 kts | 30° |
| 2026-04-21 14:49 | 31.23899 | -94.36147 | 28064 ft | 496 kts | 30° |
| 2026-04-21 14:49 | 31.26769 | -94.33906 | 28329 ft | 498 kts | 30° |
| 2026-04-21 14:49 | 31.29663 | -94.31645 | 28589 ft | 501 kts | 30° |
| 2026-04-21 14:49 | 31.32566 | -94.29376 | 28848 ft | 503 kts | 30° |
| 2026-04-21 14:50 | 31.34529 | -94.27843 | 29033 ft | 504 kts | 30° |
| 2026-04-21 14:50 | 31.38394 | -94.24818 | 29493 ft | 504 kts | 30° |
| 2026-04-21 14:50 | 31.41307 | -94.22536 | 29933 ft | 503 kts | 30° |
| 2026-04-21 14:50 | 31.44217 | -94.20253 | 30358 ft | 502 kts | 30° |
| 2026-04-21 14:51 | 31.47114 | -94.17980 | 30712 ft | 501 kts | 30° |
| 2026-04-21 14:51 | 31.50013 | -94.15703 | 31024 ft | 501 kts | 30° |
| 2026-04-21 14:51 | 31.52914 | -94.13424 | 31391 ft | 500 kts | 30° |
| 2026-04-21 14:51 | 31.55759 | -94.11186 | 31771 ft | 498 kts | 30° |
| 2026-04-21 14:52 | 31.58630 | -94.08926 | 32143 ft | 496 kts | 30° |
| 2026-04-21 14:52 | 31.61534 | -94.06639 | 32481 ft | 495 kts | 29° |
| 2026-04-21 14:52 | 31.64355 | -94.04415 | 32791 ft | 495 kts | 29° |
| 2026-04-21 14:52 | 31.67208 | -94.02165 | 33123 ft | 493 kts | 29° |
| 2026-04-21 14:53 | 31.70054 | -93.99918 | 33473 ft | 492 kts | 29° |
| 2026-04-21 14:53 | 31.72897 | -93.97671 | 33802 ft | 491 kts | 28° |
| 2026-04-21 14:53 | 31.75719 | -93.95441 | 34146 ft | 489 kts | 30° |
| 2026-04-21 14:53 | 31.77587 | -93.93964 | 34359 ft | 488 kts | 30° |
| 2026-04-21 14:54 | 31.80362 | -93.91647 | 34625 ft | 489 kts | 32° |
| 2026-04-21 14:54 | 31.83073 | -93.89223 | 34814 ft | 491 kts | 33° |
| 2026-04-21 14:54 | 31.85773 | -93.86728 | 34974 ft | 493 kts | 34° |
| 2026-04-21 14:54 | 31.88453 | -93.84226 | 35176 ft | 493 kts | 34° |
| 2026-04-21 14:55 | 31.91150 | -93.81711 | 35295 ft | 495 kts | 33° |
| 2026-04-21 14:55 | 31.96571 | -93.76696 | 35283 ft | 494 kts | 33° |
| 2026-04-21 14:56 | 32.01977 | -93.71729 | 35298 ft | 491 kts | 33° |
| 2026-04-21 14:56 | 32.07357 | -93.66794 | 35288 ft | 490 kts | 33° |
| 2026-04-21 14:57 | 32.12708 | -93.61878 | 35298 ft | 490 kts | 33° |
| 2026-04-21 14:57 | 32.18097 | -93.56917 | 35285 ft | 491 kts | 33° |
| 2026-04-21 14:58 | 32.23480 | -93.51953 | 35288 ft | 492 kts | 33° |
| 2026-04-21 14:58 | 32.28874 | -93.46969 | 35288 ft | 493 kts | 33° |
| 2026-04-21 14:59 | 32.34290 | -93.41958 | 35293 ft | 495 kts | 34° |
| 2026-04-21 14:59 | 32.39724 | -93.36923 | 35302 ft | 497 kts | 34° |
| 2026-04-21 15:00 | 32.45180 | -93.31858 | 35303 ft | 498 kts | 34° |
| 2026-04-21 15:00 | 32.50633 | -93.26788 | 35309 ft | 499 kts | 34° |
| 2026-04-21 15:01 | 32.56110 | -93.21688 | 35322 ft | 500 kts | 34° |
| 2026-04-21 15:01 | 32.61557 | -93.16605 | 35316 ft | 492 kts | 34° |
| 2026-04-21 15:02 | 32.66848 | -93.11658 | 35307 ft | 484 kts | 34° |
| 2026-04-21 15:02 | 32.72116 | -93.06731 | 35301 ft | 481 kts | 34° |
| 2026-04-21 15:03 | 32.77391 | -93.01793 | 35302 ft | 485 kts | 34° |
| 2026-04-21 15:03 | 32.82721 | -92.96793 | 35313 ft | 492 kts | 34° |
| 2026-04-21 15:04 | 32.88109 | -92.91727 | 35313 ft | 494 kts | 34° |
| 2026-04-21 15:04 | 32.93492 | -92.86655 | 35309 ft | 492 kts | 34° |
| 2026-04-21 15:05 | 32.98877 | -92.81651 | 35295 ft | 489 kts | 32° |
| 2026-04-21 15:05 | 33.07021 | -92.74639 | 35311 ft | 485 kts | 31° |
| 2026-04-21 15:06 | 33.12584 | -92.69845 | 35317 ft | 484 kts | 31° |
| 2026-04-21 15:06 | 33.18012 | -92.65117 | 35327 ft | 483 kts | 31° |
| 2026-04-21 15:07 | 33.23443 | -92.60365 | 35312 ft | 483 kts | 31° |
| 2026-04-21 15:07 | 33.28825 | -92.55649 | 35316 ft | 483 kts | 31° |
| 2026-04-21 15:08 | 33.34237 | -92.50902 | 35312 ft | 483 kts | 31° |
| 2026-04-21 15:08 | 33.39658 | -92.46139 | 35310 ft | 483 kts | 31° |
| 2026-04-21 15:09 | 33.45083 | -92.41365 | 35310 ft | 484 kts | 32° |
| 2026-04-21 15:09 | 33.50449 | -92.36451 | 35300 ft | 488 kts | 38° |
| 2026-04-21 15:10 | 33.54905 | -92.30226 | 35314 ft | 494 kts | 49° |
| 2026-04-21 15:10 | 33.59074 | -92.23664 | 35314 ft | 495 kts | 49° |
| 2026-04-21 15:11 | 33.63206 | -92.17232 | 35310 ft | 495 kts | 49° |
| 2026-04-21 15:11 | 33.67515 | -92.10605 | 35315 ft | 495 kts | 48° |
| 2026-04-21 15:12 | 33.71729 | -92.04139 | 35309 ft | 495 kts | 49° |
| 2026-04-21 15:12 | 33.75965 | -91.97619 | 35314 ft | 495 kts | 49° |
| 2026-04-21 15:13 | 33.80200 | -91.91085 | 35308 ft | 495 kts | 49° |
| 2026-04-21 15:13 | 33.84377 | -91.84628 | 35305 ft | 495 kts | 48° |
| 2026-04-21 15:14 | 33.88647 | -91.78017 | 35314 ft | 495 kts | 49° |
| 2026-04-21 15:14 | 33.92859 | -91.71467 | 35309 ft | 495 kts | 49° |
| 2026-04-21 15:15 | 33.97061 | -91.64917 | 35319 ft | 495 kts | 48° |
| 2026-04-21 15:15 | 34.01269 | -91.58345 | 35320 ft | 495 kts | 49° |
| 2026-04-21 15:16 | 34.05475 | -91.51765 | 35322 ft | 495 kts | 48° |
| 2026-04-21 15:16 | 34.09654 | -91.45216 | 35323 ft | 495 kts | 48° |
| 2026-04-21 15:17 | 34.13863 | -91.38609 | 35323 ft | 495 kts | 48° |
| 2026-04-21 15:17 | 34.18060 | -91.32007 | 35323 ft | 496 kts | 48° |
| 2026-04-21 15:18 | 34.22259 | -91.25391 | 35335 ft | 496 kts | 48° |
| 2026-04-21 15:18 | 34.26427 | -91.18811 | 35324 ft | 496 kts | 48° |
| 2026-04-21 15:19 | 34.30619 | -91.12182 | 35326 ft | 496 kts | 48° |
| 2026-04-21 15:19 | 34.34809 | -91.05541 | 35319 ft | 496 kts | 48° |
| 2026-04-21 15:20 | 34.38994 | -90.98896 | 35322 ft | 496 kts | 48° |
| 2026-04-21 15:20 | 34.43181 | -90.92237 | 35315 ft | 496 kts | 48° |
| 2026-04-21 15:21 | 34.47362 | -90.85580 | 35338 ft | 496 kts | 48° |
| 2026-04-21 15:21 | 34.51516 | -90.78961 | 35321 ft | 496 kts | 48° |
| 2026-04-21 15:22 | 34.55726 | -90.72241 | 35326 ft | 497 kts | 48° |
| 2026-04-21 15:22 | 34.59905 | -90.65555 | 35317 ft | 497 kts | 48° |
| 2026-04-21 15:23 | 34.64077 | -90.58867 | 35316 ft | 497 kts | 48° |
| 2026-04-21 15:23 | 34.68229 | -90.52199 | 35323 ft | 497 kts | 48° |
| 2026-04-21 15:24 | 34.72404 | -90.45480 | 35324 ft | 497 kts | 48° |
| 2026-04-21 15:24 | 34.76540 | -90.38812 | 35329 ft | 497 kts | 48° |
| 2026-04-21 15:25 | 34.80729 | -90.32047 | 35331 ft | 497 kts | 47° |
| 2026-04-21 15:25 | 34.84889 | -90.25314 | 35320 ft | 497 kts | 47° |
| 2026-04-21 15:26 | 34.89043 | -90.18578 | 35307 ft | 497 kts | 47° |
| 2026-04-21 15:26 | 34.93162 | -90.11886 | 35305 ft | 497 kts | 48° |
| 2026-04-21 15:27 | 34.97305 | -90.05144 | 35300 ft | 497 kts | 48° |
| 2026-04-21 15:27 | 35.01567 | -89.98543 | 35325 ft | 491 kts | 39° |
| 2026-04-21 15:28 | 35.04076 | -89.95784 | 35331 ft | 480 kts | 29° |
| 2026-04-21 15:28 | 35.06766 | -89.93390 | 35337 ft | 478 kts | 28° |
| 2026-04-21 15:28 | 35.12190 | -89.88659 | 35331 ft | 478 kts | 28° |
| 2026-04-21 15:29 | 35.17586 | -89.83899 | 35310 ft | 479 kts | 29° |
| 2026-04-21 15:29 | 35.22967 | -89.79086 | 35312 ft | 479 kts | 29° |
| 2026-04-21 15:30 | 35.28311 | -89.74277 | 35320 ft | 480 kts | 29° |
| 2026-04-21 15:30 | 35.33695 | -89.69422 | 35313 ft | 480 kts | 29° |
| 2026-04-21 15:31 | 35.39071 | -89.64569 | 35310 ft | 480 kts | 29° |
| 2026-04-21 15:31 | 35.44447 | -89.59709 | 35310 ft | 480 kts | 29° |
| 2026-04-21 15:32 | 35.49826 | -89.54839 | 35310 ft | 480 kts | 29° |
| 2026-04-21 15:32 | 35.55211 | -89.49955 | 35318 ft | 481 kts | 28° |
| 2026-04-21 15:33 | 35.60556 | -89.45099 | 35310 ft | 481 kts | 28° |
| 2026-04-21 15:33 | 35.65938 | -89.40200 | 35312 ft | 481 kts | 28° |
| 2026-04-21 15:34 | 35.71315 | -89.35298 | 35310 ft | 481 kts | 28° |
| 2026-04-21 15:34 | 35.76691 | -89.30388 | 35335 ft | 481 kts | 29° |
| 2026-04-21 15:35 | 35.82069 | -89.25467 | 35324 ft | 481 kts | 29° |
| 2026-04-21 15:35 | 35.87446 | -89.20539 | 35322 ft | 480 kts | 29° |
| 2026-04-21 15:36 | 35.92796 | -89.15627 | 35310 ft | 479 kts | 29° |
| 2026-04-21 15:36 | 35.98106 | -89.10744 | 35310 ft | 478 kts | 29° |
| 2026-04-21 15:37 | 36.03421 | -89.05848 | 35298 ft | 476 kts | 29° |
| 2026-04-21 15:37 | 36.08733 | -89.00946 | 35291 ft | 475 kts | 29° |
| 2026-04-21 15:38 | 36.14029 | -88.96050 | 35285 ft | 475 kts | 29° |
| 2026-04-21 15:38 | 36.19321 | -88.91146 | 35288 ft | 475 kts | 29° |
| 2026-04-21 15:39 | 36.23716 | -88.87063 | 35286 ft | 475 kts | 29° |
| 2026-04-21 15:39 | 36.29860 | -88.81347 | 35287 ft | 475 kts | 31° |
| 2026-04-21 15:40 | 36.34294 | -88.77213 | 35284 ft | 475 kts | 31° |
| 2026-04-21 15:40 | 36.39539 | -88.72314 | 35287 ft | 475 kts | 31° |
| 2026-04-21 15:41 | 36.44815 | -88.67380 | 35291 ft | 474 kts | 31° |
| 2026-04-21 15:41 | 36.50086 | -88.62441 | 35314 ft | 474 kts | 31° |
| 2026-04-21 15:42 | 36.55349 | -88.57503 | 35291 ft | 474 kts | 32° |
| 2026-04-21 15:42 | 36.60605 | -88.52560 | 35296 ft | 473 kts | 32° |
| 2026-04-21 15:43 | 36.65856 | -88.47614 | 35306 ft | 473 kts | 32° |
| 2026-04-21 15:43 | 36.71099 | -88.42667 | 35304 ft | 472 kts | 32° |
| 2026-04-21 15:44 | 36.76308 | -88.37744 | 35313 ft | 472 kts | 32° |
| 2026-04-21 15:44 | 36.81529 | -88.32801 | 35298 ft | 471 kts | 32° |
| 2026-04-21 15:45 | 36.86750 | -88.27849 | 35292 ft | 471 kts | 32° |
| 2026-04-21 15:45 | 36.91964 | -88.22894 | 35283 ft | 470 kts | 32° |
| 2026-04-21 15:46 | 36.97170 | -88.17939 | 35271 ft | 470 kts | 32° |
| 2026-04-21 15:46 | 37.02375 | -88.12976 | 35270 ft | 470 kts | 32° |
| 2026-04-21 15:47 | 37.07544 | -88.08039 | 35265 ft | 470 kts | 32° |
| 2026-04-21 15:47 | 37.12742 | -88.03065 | 35264 ft | 470 kts | 32° |
| 2026-04-21 15:48 | 37.17944 | -87.98077 | 35266 ft | 470 kts | 32° |
| 2026-04-21 15:48 | 37.23144 | -87.93083 | 35281 ft | 470 kts | 32° |
| 2026-04-21 15:49 | 37.28299 | -87.88122 | 35288 ft | 470 kts | 32° |
| 2026-04-21 15:49 | 37.33475 | -87.83096 | 35278 ft | 471 kts | 35° |
| 2026-04-21 15:50 | 37.38208 | -87.77299 | 35275 ft | 476 kts | 41° |
| 2026-04-21 15:50 | 37.42757 | -87.71258 | 35268 ft | 476 kts | 41° |
| 2026-04-21 15:51 | 37.47328 | -87.65219 | 35282 ft | 476 kts | 40° |
| 2026-04-21 15:51 | 37.51901 | -87.59252 | 35271 ft | 476 kts | 40° |
| 2026-04-21 15:52 | 37.56511 | -87.53264 | 35278 ft | 476 kts | 40° |
| 2026-04-21 15:52 | 37.61126 | -87.47264 | 35278 ft | 476 kts | 40° |
| 2026-04-21 15:53 | 37.65741 | -87.41250 | 35276 ft | 476 kts | 40° |
| 2026-04-21 15:53 | 37.70319 | -87.35270 | 35291 ft | 476 kts | 40° |
| 2026-04-21 15:54 | 37.74924 | -87.29243 | 35285 ft | 476 kts | 40° |
| 2026-04-21 15:54 | 37.79524 | -87.23210 | 35275 ft | 476 kts | 40° |
| 2026-04-21 15:55 | 37.84110 | -87.17183 | 35295 ft | 475 kts | 40° |
| 2026-04-21 15:55 | 37.88686 | -87.11159 | 35292 ft | 474 kts | 40° |
| 2026-04-21 15:56 | 37.93230 | -87.05166 | 35295 ft | 474 kts | 40° |
| 2026-04-21 15:56 | 37.97795 | -86.99134 | 35271 ft | 473 kts | 40° |
| 2026-04-21 15:57 | 38.02347 | -86.93108 | 35283 ft | 473 kts | 40° |
| 2026-04-21 15:57 | 38.06895 | -86.87074 | 35273 ft | 473 kts | 40° |
| 2026-04-21 15:58 | 38.11450 | -86.81020 | 35271 ft | 473 kts | 40° |
| 2026-04-21 15:58 | 38.15986 | -86.74980 | 35286 ft | 472 kts | 40° |
| 2026-04-21 15:59 | 38.20528 | -86.68921 | 35266 ft | 472 kts | 40° |
| 2026-04-21 15:59 | 38.25037 | -86.62894 | 35259 ft | 472 kts | 40° |
| 2026-04-21 16:00 | 38.29561 | -86.56834 | 35252 ft | 472 kts | 40° |
| 2026-04-21 16:00 | 38.34085 | -86.50763 | 35261 ft | 472 kts | 40° |
| 2026-04-21 16:01 | 38.38605 | -86.44686 | 35242 ft | 472 kts | 40° |
| 2026-04-21 16:01 | 38.43124 | -86.38598 | 35242 ft | 472 kts | 40° |
| 2026-04-21 16:02 | 38.47609 | -86.32544 | 35243 ft | 472 kts | 40° |
| 2026-04-21 16:02 | 38.52118 | -86.26446 | 35243 ft | 472 kts | 40° |
| 2026-04-21 16:03 | 38.56624 | -86.20340 | 35237 ft | 472 kts | 40° |
| 2026-04-21 16:03 | 38.61127 | -86.14226 | 35254 ft | 473 kts | 40° |
| 2026-04-21 16:04 | 38.65635 | -86.08094 | 35245 ft | 472 kts | 40° |
| 2026-04-21 16:04 | 38.70134 | -86.01960 | 35233 ft | 472 kts | 40° |
| 2026-04-21 16:05 | 38.74596 | -85.95866 | 35235 ft | 471 kts | 40° |
| 2026-04-21 16:05 | 38.79077 | -85.89733 | 35234 ft | 470 kts | 40° |
| 2026-04-21 16:06 | 38.83543 | -85.83609 | 35257 ft | 469 kts | 40° |
| 2026-04-21 16:06 | 38.87996 | -85.77492 | 35249 ft | 469 kts | 40° |
| 2026-04-21 16:07 | 38.92454 | -85.71357 | 35252 ft | 469 kts | 40° |
| 2026-04-21 16:07 | 38.96870 | -85.65265 | 35245 ft | 469 kts | 40° |
| 2026-04-21 16:08 | 39.03532 | -85.56054 | 35247 ft | 469 kts | 40° |
| 2026-04-21 16:09 | 39.07981 | -85.49889 | 35240 ft | 470 kts | 40° |
| 2026-04-21 16:09 | 39.12427 | -85.43715 | 35223 ft | 470 kts | 40° |
| 2026-04-21 16:10 | 39.16871 | -85.37528 | 35225 ft | 470 kts | 40° |
| 2026-04-21 16:10 | 39.21317 | -85.31329 | 35223 ft | 470 kts | 40° |
| 2026-04-21 16:11 | 39.25757 | -85.25125 | 35250 ft | 470 kts | 40° |
| 2026-04-21 16:11 | 39.30165 | -85.18954 | 35228 ft | 470 kts | 40° |
| 2026-04-21 16:12 | 39.33879 | -85.13743 | 35231 ft | 470 kts | 40° |
| 2026-04-21 16:12 | 39.39013 | -85.06527 | 35219 ft | 469 kts | 40° |
| 2026-04-21 16:13 | 39.43434 | -85.00301 | 35226 ft | 469 kts | 40° |
| 2026-04-21 16:13 | 39.47843 | -84.94077 | 35248 ft | 468 kts | 40° |
| 2026-04-21 16:14 | 39.52216 | -84.87893 | 35226 ft | 468 kts | 40° |
| 2026-04-21 16:14 | 39.56615 | -84.81660 | 35227 ft | 468 kts | 40° |
| 2026-04-21 16:15 | 39.61002 | -84.75430 | 35219 ft | 467 kts | 40° |
| 2026-04-21 16:15 | 39.65378 | -84.69203 | 35218 ft | 467 kts | 40° |
| 2026-04-21 16:16 | 39.69760 | -84.62957 | 35232 ft | 467 kts | 40° |
| 2026-04-21 16:16 | 39.74133 | -84.56708 | 35219 ft | 467 kts | 40° |
| 2026-04-21 16:17 | 39.78505 | -84.50449 | 35216 ft | 467 kts | 40° |
| 2026-04-21 16:17 | 39.82875 | -84.44179 | 35213 ft | 467 kts | 40° |
| 2026-04-21 16:18 | 39.87213 | -84.37943 | 35210 ft | 467 kts | 40° |
| 2026-04-21 16:18 | 39.91573 | -84.31665 | 35221 ft | 468 kts | 40° |
| 2026-04-21 16:19 | 39.96101 | -84.25648 | 35226 ft | 464 kts | 36° |
| 2026-04-21 16:19 | 40.00766 | -84.19852 | 35211 ft | 463 kts | 36° |
| 2026-04-21 16:20 | 40.05417 | -84.14045 | 35211 ft | 463 kts | 36° |
| 2026-04-21 16:20 | 40.10045 | -84.08191 | 35201 ft | 463 kts | 37° |
| 2026-04-21 16:21 | 40.14660 | -84.02317 | 35206 ft | 463 kts | 37° |
| 2026-04-21 16:21 | 40.19239 | -83.96474 | 35202 ft | 462 kts | 37° |
| 2026-04-21 16:22 | 40.23096 | -83.91547 | 35202 ft | 462 kts | 37° |
| 2026-04-21 16:22 | 40.28432 | -83.84717 | 35188 ft | 462 kts | 37° |
| 2026-04-21 16:23 | 40.33019 | -83.78832 | 35210 ft | 461 kts | 38° |
| 2026-04-21 16:23 | 40.37607 | -83.72935 | 35199 ft | 461 kts | 38° |
| 2026-04-21 16:24 | 40.42179 | -83.67046 | 35194 ft | 461 kts | 38° |
| 2026-04-21 16:24 | 40.46726 | -83.61179 | 35200 ft | 460 kts | 38° |
| 2026-04-21 16:25 | 40.51289 | -83.55279 | 35204 ft | 460 kts | 38° |
| 2026-04-21 16:25 | 40.55840 | -83.49379 | 35196 ft | 459 kts | 38° |
| 2026-04-21 16:26 | 40.59614 | -83.44476 | 35198 ft | 459 kts | 38° |
| 2026-04-21 16:26 | 40.64919 | -83.37570 | 35201 ft | 458 kts | 38° |
| 2026-04-21 16:27 | 40.68685 | -83.32659 | 35206 ft | 457 kts | 38° |
| 2026-04-21 16:27 | 40.73553 | -83.25207 | 35212 ft | 464 kts | 46° |
| 2026-04-21 16:28 | 40.76793 | -83.19558 | 35206 ft | 465 kts | 47° |
| 2026-04-21 16:28 | 40.80707 | -83.12750 | 35214 ft | 465 kts | 47° |
| 2026-04-21 16:29 | 40.84666 | -83.05967 | 35201 ft | 466 kts | 46° |
| 2026-04-21 16:29 | 40.88644 | -82.99183 | 35202 ft | 466 kts | 46° |
| 2026-04-21 16:30 | 40.92595 | -82.92434 | 35215 ft | 467 kts | 46° |
| 2026-04-21 16:30 | 40.96566 | -82.85632 | 35200 ft | 467 kts | 47° |
| 2026-04-21 16:31 | 41.00536 | -82.78814 | 35201 ft | 467 kts | 47° |
| 2026-04-21 16:31 | 41.04491 | -82.72005 | 35196 ft | 466 kts | 47° |
| 2026-04-21 16:32 | 41.08443 | -82.65188 | 35188 ft | 466 kts | 47° |
| 2026-04-21 16:32 | 41.12385 | -82.58375 | 35211 ft | 465 kts | 47° |
| 2026-04-21 16:33 | 41.15986 | -82.51214 | 35216 ft | 470 kts | 56° |
| 2026-04-21 16:33 | 41.19026 | -82.43500 | 35187 ft | 471 kts | 58° |
| 2026-04-21 16:34 | 41.22047 | -82.35785 | 35207 ft | 470 kts | 57° |
| 2026-04-21 16:34 | 41.25116 | -82.28115 | 35191 ft | 470 kts | 57° |
| 2026-04-21 16:35 | 41.28174 | -82.20513 | 35192 ft | 469 kts | 57° |
| 2026-04-21 16:35 | 41.31241 | -82.12861 | 35202 ft | 468 kts | 57° |
| 2026-04-21 16:36 | 41.34293 | -82.05206 | 35193 ft | 469 kts | 59° |
| 2026-04-21 16:36 | 41.36962 | -81.97245 | 35192 ft | 471 kts | 63° |
| 2026-04-21 16:37 | 41.39470 | -81.89181 | 35182 ft | 471 kts | 63° |
| 2026-04-21 16:37 | 41.41998 | -81.81120 | 35185 ft | 471 kts | 63° |
| 2026-04-21 16:38 | 41.44529 | -81.73132 | 35186 ft | 471 kts | 62° |
| 2026-04-21 16:38 | 41.47082 | -81.65083 | 35204 ft | 471 kts | 62° |
| 2026-04-21 16:39 | 41.49630 | -81.57016 | 35188 ft | 472 kts | 63° |
| 2026-04-21 16:39 | 41.52176 | -81.48926 | 35202 ft | 473 kts | 63° |
| 2026-04-21 16:40 | 41.54715 | -81.40842 | 35202 ft | 472 kts | 63° |
| 2026-04-21 16:40 | 41.57254 | -81.32746 | 35205 ft | 472 kts | 63° |
| 2026-04-21 16:41 | 41.59791 | -81.24643 | 35196 ft | 472 kts | 62° |
| 2026-04-21 16:41 | 41.62303 | -81.16593 | 35193 ft | 471 kts | 63° |
| 2026-04-21 16:42 | 41.64818 | -81.08505 | 35212 ft | 471 kts | 62° |
| 2026-04-21 16:42 | 41.67328 | -81.00410 | 35225 ft | 471 kts | 62° |
| 2026-04-21 16:43 | 41.69833 | -80.92308 | 35220 ft | 471 kts | 63° |
| 2026-04-21 16:43 | 41.72327 | -80.84212 | 35235 ft | 471 kts | 62° |
| 2026-04-21 16:44 | 41.74821 | -80.76095 | 35229 ft | 470 kts | 62° |
| 2026-04-21 16:44 | 41.77287 | -80.68048 | 35229 ft | 470 kts | 62° |
| 2026-04-21 16:45 | 41.79383 | -80.59727 | 35234 ft | 478 kts | 76° |
| 2026-04-21 16:45 | 41.79584 | -80.50751 | 35245 ft | 488 kts | 93° |
| 2026-04-21 16:46 | 41.78635 | -80.41727 | 35247 ft | 489 kts | 95° |
| 2026-04-21 16:46 | 41.77636 | -80.32711 | 35248 ft | 489 kts | 94° |
| 2026-04-21 16:47 | 41.76684 | -80.23686 | 35247 ft | 489 kts | 94° |
| 2026-04-21 16:47 | 41.75762 | -80.14702 | 35262 ft | 490 kts | 94° |
| 2026-04-21 16:48 | 41.74833 | -80.05664 | 35256 ft | 490 kts | 94° |
| 2026-04-21 16:48 | 41.73894 | -79.96621 | 35252 ft | 490 kts | 94° |
| 2026-04-21 16:49 | 41.72945 | -79.87582 | 35259 ft | 490 kts | 94° |
| 2026-04-21 16:49 | 41.71987 | -79.78520 | 35285 ft | 491 kts | 94° |
| 2026-04-21 16:50 | 41.71024 | -79.69483 | 35273 ft | 491 kts | 94° |
| 2026-04-21 16:50 | 41.70052 | -79.60436 | 35272 ft | 491 kts | 94° |
| 2026-04-21 16:51 | 41.69073 | -79.51388 | 35280 ft | 491 kts | 94° |
| 2026-04-21 16:51 | 41.68087 | -79.42336 | 35319 ft | 491 kts | 93° |
| 2026-04-21 16:52 | 41.67095 | -79.33289 | 35282 ft | 492 kts | 93° |
| 2026-04-21 16:52 | 41.66093 | -79.24229 | 35289 ft | 492 kts | 93° |
| 2026-04-21 16:53 | 41.65083 | -79.15160 | 35282 ft | 492 kts | 93° |
| 2026-04-21 16:53 | 41.64076 | -79.06166 | 35287 ft | 492 kts | 93° |
| 2026-04-21 16:54 | 41.63057 | -78.97103 | 35289 ft | 493 kts | 93° |
| 2026-04-21 16:54 | 41.62029 | -78.88036 | 35282 ft | 493 kts | 93° |
| 2026-04-21 16:55 | 41.60994 | -78.78967 | 35286 ft | 494 kts | 93° |
| 2026-04-21 16:55 | 41.59950 | -78.69888 | 35272 ft | 494 kts | 93° |
| 2026-04-21 16:56 | 41.58897 | -78.60794 | 35279 ft | 495 kts | 93° |
| 2026-04-21 16:56 | 41.57843 | -78.51751 | 35282 ft | 495 kts | 93° |
| 2026-04-21 16:57 | 41.56774 | -78.42656 | 35257 ft | 496 kts | 93° |
| 2026-04-21 16:57 | 41.55699 | -78.33568 | 35295 ft | 495 kts | 93° |
| 2026-04-21 16:58 | 41.54616 | -78.24468 | 35310 ft | 496 kts | 93° |
| 2026-04-21 16:58 | 41.53532 | -78.15431 | 35316 ft | 496 kts | 93° |
| 2026-04-21 16:59 | 41.52434 | -78.06331 | 35324 ft | 496 kts | 93° |
| 2026-04-21 16:59 | 41.51329 | -77.97236 | 35321 ft | 496 kts | 94° |
| 2026-04-21 17:00 | 41.50110 | -77.88179 | 35322 ft | 497 kts | 95° |
| 2026-04-21 17:00 | 41.49020 | -77.80669 | 35330 ft | 496 kts | 95° |
| 2026-04-21 17:01 | 41.47488 | -77.70098 | 35321 ft | 496 kts | 95° |
| 2026-04-21 17:01 | 41.46190 | -77.61077 | 35335 ft | 496 kts | 95° |
| 2026-04-21 17:02 | 41.44900 | -77.52105 | 35332 ft | 496 kts | 95° |
| 2026-04-21 17:02 | 41.43588 | -77.43081 | 35329 ft | 495 kts | 95° |
| 2026-04-21 17:03 | 41.42273 | -77.34065 | 35342 ft | 495 kts | 95° |
| 2026-04-21 17:03 | 41.40953 | -77.25040 | 35341 ft | 495 kts | 95° |
| 2026-04-21 17:04 | 41.39626 | -77.16044 | 35331 ft | 496 kts | 95° |
| 2026-04-21 17:04 | 41.38292 | -77.07023 | 34561 ft | 507 kts | 95° |
| 2026-04-21 17:04 | 41.37608 | -77.02425 | 33786 ft | 506 kts | 95° |
| 2026-04-21 17:05 | 41.36920 | -76.97825 | 32946 ft | 507 kts | 95° |
| 2026-04-21 17:05 | 41.36226 | -76.93209 | 32117 ft | 507 kts | 95° |
| 2026-04-21 17:05 | 41.35536 | -76.88634 | 31563 ft | 500 kts | 95° |
| 2026-04-21 17:05 | 41.34854 | -76.84113 | 31049 ft | 495 kts | 95° |
| 2026-04-21 17:06 | 41.34177 | -76.79629 | 30466 ft | 492 kts | 95° |
| 2026-04-21 17:06 | 41.33422 | -76.75205 | 29828 ft | 491 kts | 100° |
| 2026-04-21 17:06 | 41.32374 | -76.70893 | 29294 ft | 487 kts | 104° |
| 2026-04-21 17:06 | 41.31209 | -76.66732 | 28719 ft | 483 kts | 106° |
| 2026-04-21 17:07 | 41.30393 | -76.63918 | 28336 ft | 480 kts | 106° |
| 2026-04-21 17:07 | 41.28822 | -76.58452 | 27566 ft | 474 kts | 105° |
| 2026-04-21 17:07 | 41.27682 | -76.54369 | 27012 ft | 470 kts | 105° |
| 2026-04-21 17:07 | 41.26570 | -76.50298 | 26501 ft | 466 kts | 105° |
| 2026-04-21 17:08 | 41.25481 | -76.46257 | 25949 ft | 463 kts | 104° |
| 2026-04-21 17:08 | 41.24403 | -76.42239 | 25396 ft | 461 kts | 104° |
| 2026-04-21 17:08 | 41.23328 | -76.38234 | 24839 ft | 459 kts | 105° |
| 2026-04-21 17:08 | 41.22255 | -76.34252 | 24279 ft | 457 kts | 105° |
| 2026-04-21 17:09 | 41.20114 | -76.26339 | 23088 ft | 453 kts | 105° |
| 2026-04-21 17:09 | 41.19062 | -76.22467 | 22533 ft | 449 kts | 105° |
| 2026-04-21 17:09 | 41.18003 | -76.18578 | 21978 ft | 445 kts | 105° |
| 2026-04-21 17:10 | 41.16952 | -76.14724 | 21439 ft | 442 kts | 105° |
| 2026-04-21 17:10 | 41.15908 | -76.10902 | 20926 ft | 438 kts | 105° |
| 2026-04-21 17:10 | 41.14873 | -76.07113 | 20398 ft | 435 kts | 106° |
| 2026-04-21 17:10 | 41.13842 | -76.03346 | 19874 ft | 433 kts | 106° |
| 2026-04-21 17:11 | 41.12816 | -75.99607 | 19327 ft | 431 kts | 106° |
| 2026-04-21 17:11 | 41.11793 | -75.95890 | 18820 ft | 428 kts | 106° |
| 2026-04-21 17:11 | 41.10773 | -75.92185 | 18248 ft | 426 kts | 106° |
| 2026-04-21 17:11 | 41.09759 | -75.88508 | 17705 ft | 423 kts | 106° |
| 2026-04-21 17:12 | 41.08753 | -75.84862 | 17183 ft | 419 kts | 106° |
| 2026-04-21 17:12 | 41.07756 | -75.81255 | 16665 ft | 415 kts | 106° |
| 2026-04-21 17:12 | 41.06767 | -75.77679 | 16162 ft | 412 kts | 106° |
| 2026-04-21 17:12 | 41.05785 | -75.74133 | 15667 ft | 408 kts | 106° |
| 2026-04-21 17:13 | 41.05136 | -75.71796 | 15320 ft | 406 kts | 106° |
| 2026-04-21 17:13 | 41.03853 | -75.67171 | 14670 ft | 402 kts | 107° |
| 2026-04-21 17:13 | 41.02890 | -75.63704 | 14178 ft | 399 kts | 107° |
| 2026-04-21 17:13 | 41.01930 | -75.60259 | 13642 ft | 396 kts | 107° |
| 2026-04-21 17:14 | 41.01289 | -75.57961 | 13305 ft | 393 kts | 107° |
| 2026-04-21 17:14 | 41.00049 | -75.53526 | 12876 ft | 382 kts | 107° |
| 2026-04-21 17:14 | 40.99439 | -75.51349 | 12677 ft | 377 kts | 107° |
| 2026-04-21 17:14 | 40.98533 | -75.48118 | 12371 ft | 372 kts | 107° |
| 2026-04-21 17:15 | 40.97638 | -75.44921 | 12105 ft | 369 kts | 107° |
| 2026-04-21 17:15 | 40.96747 | -75.41739 | 11840 ft | 368 kts | 107° |
| 2026-04-21 17:15 | 40.95856 | -75.38564 | 11551 ft | 367 kts | 107° |
| 2026-04-21 17:15 | 40.94971 | -75.35410 | 11257 ft | 364 kts | 107° |
| 2026-04-21 17:16 | 40.94096 | -75.32301 | 10964 ft | 357 kts | 108° |
| 2026-04-21 17:16 | 40.93235 | -75.29248 | 10697 ft | 351 kts | 108° |
| 2026-04-21 17:16 | 40.92389 | -75.26250 | 10445 ft | 346 kts | 108° |
| 2026-04-21 17:16 | 40.91555 | -75.23298 | 10293 ft | 337 kts | 108° |
| 2026-04-21 17:17 | 40.90753 | -75.20463 | 10274 ft | 322 kts | 108° |
| 2026-04-21 17:17 | 40.89983 | -75.17737 | 9977 ft | 317 kts | 108° |
| 2026-04-21 17:17 | 40.89198 | -75.14959 | 9492 ft | 321 kts | 108° |
| 2026-04-21 17:17 | 40.88415 | -75.12198 | 9174 ft | 319 kts | 108° |
| 2026-04-21 17:18 | 40.87645 | -75.09480 | 8914 ft | 314 kts | 108° |
| 2026-04-21 17:18 | 40.86884 | -75.06786 | 8676 ft | 310 kts | 109° |
| 2026-04-21 17:18 | 40.86137 | -75.04136 | 8421 ft | 305 kts | 109° |
| 2026-04-21 17:18 | 40.85402 | -75.01530 | 8175 ft | 301 kts | 109° |
| 2026-04-21 17:19 | 40.84662 | -74.98906 | 7675 ft | 305 kts | 109° |
| 2026-04-21 17:19 | 40.83919 | -74.96289 | 7348 ft | 304 kts | 109° |
| 2026-04-21 17:19 | 40.83187 | -74.93704 | 7129 ft | 297 kts | 109° |
| 2026-04-21 17:19 | 40.82479 | -74.91176 | 7011 ft | 288 kts | 109° |
| 2026-04-21 17:20 | 40.81837 | -74.88744 | 6986 ft | 274 kts | 104° |
| 2026-04-21 17:20 | 40.81765 | -74.86341 | 7017 ft | 263 kts | 76° |
| 2026-04-21 17:20 | 40.82210 | -74.83923 | 7028 ft | 278 kts | 72° |
| 2026-04-21 17:20 | 40.82698 | -74.81430 | 7006 ft | 284 kts | 73° |
| 2026-04-21 17:21 | 40.83181 | -74.78893 | 7000 ft | 284 kts | 73° |
| 2026-04-21 17:21 | 40.83645 | -74.76379 | 6890 ft | 280 kts | 74° |
| 2026-04-21 17:21 | 40.84097 | -74.73881 | 6564 ft | 279 kts | 74° |
| 2026-04-21 17:21 | 40.84541 | -74.71394 | 6243 ft | 277 kts | 75° |
| 2026-04-21 17:22 | 40.84972 | -74.68931 | 6017 ft | 273 kts | 75° |
| 2026-04-21 17:22 | 40.85395 | -74.66497 | 5867 ft | 270 kts | 75° |
| 2026-04-21 17:22 | 40.85813 | -74.64095 | 5749 ft | 268 kts | 76° |
| 2026-04-21 17:22 | 40.86231 | -74.61691 | 5660 ft | 270 kts | 76° |
| 2026-04-21 17:23 | 40.86652 | -74.59263 | 5537 ft | 273 kts | 76° |
| 2026-04-21 17:23 | 40.87070 | -74.56817 | 5429 ft | 272 kts | 76° |
| 2026-04-21 17:23 | 40.87487 | -74.54382 | 5309 ft | 271 kts | 76° |
| 2026-04-21 17:23 | 40.87899 | -74.51956 | 5215 ft | 271 kts | 76° |
| 2026-04-21 17:24 | 40.88316 | -74.49525 | 5096 ft | 271 kts | 76° |
| 2026-04-21 17:24 | 40.88726 | -74.47113 | 5007 ft | 268 kts | 77° |
| 2026-04-21 17:24 | 40.89127 | -74.44746 | 4881 ft | 267 kts | 77° |
| 2026-04-21 17:24 | 40.89535 | -74.42353 | 4809 ft | 266 kts | 77° |
| 2026-04-21 17:25 | 40.89937 | -74.39965 | 4687 ft | 267 kts | 77° |
| 2026-04-21 17:25 | 40.90344 | -74.37566 | 4586 ft | 267 kts | 77° |
| 2026-04-21 17:25 | 40.90750 | -74.35163 | 4467 ft | 268 kts | 77° |
| 2026-04-21 17:25 | 40.91156 | -74.32767 | 4367 ft | 266 kts | 78° |
| 2026-04-21 17:26 | 40.91557 | -74.30374 | 4278 ft | 266 kts | 78° |
| 2026-04-21 17:26 | 40.91958 | -74.27988 | 4166 ft | 265 kts | 78° |
| 2026-04-21 17:26 | 40.92362 | -74.25603 | 4048 ft | 265 kts | 78° |
| 2026-04-21 17:26 | 40.92760 | -74.23235 | 3947 ft | 264 kts | 79° |
| 2026-04-21 17:27 | 40.93155 | -74.20871 | 3831 ft | 263 kts | 78° |
| 2026-04-21 17:27 | 40.93549 | -74.18512 | 3752 ft | 262 kts | 79° |
| 2026-04-21 17:27 | 40.93547 | -74.16139 | 3619 ft | 260 kts | 109° |
| 2026-04-21 17:27 | 40.92636 | -74.14174 | 3554 ft | 254 kts | 137° |
| 2026-04-21 17:28 | 40.91231 | -74.12818 | 3452 ft | 245 kts | 151° |
| 2026-04-21 17:28 | 40.89772 | -74.11748 | 3353 ft | 236 kts | 153° |
| 2026-04-21 17:28 | 40.88357 | -74.10727 | 3253 ft | 227 kts | 152° |
| 2026-04-21 17:28 | 40.87015 | -74.09745 | 3199 ft | 216 kts | 152° |
| 2026-04-21 17:29 | 40.85715 | -74.08787 | 3104 ft | 213 kts | 152° |
| 2026-04-21 17:29 | 40.84412 | -74.07869 | 3011 ft | 210 kts | 162° |
| 2026-04-21 17:29 | 40.83013 | -74.07800 | 2808 ft | 199 kts | 202° |
| 2026-04-21 17:29 | 40.81818 | -74.08549 | 2688 ft | 185 kts | 204° |
| 2026-04-21 17:30 | 40.80660 | -74.09218 | 2488 ft | 182 kts | 205° |
| 2026-04-21 17:30 | 40.79540 | -74.09912 | 2232 ft | 174 kts | 206° |
| 2026-04-21 17:30 | 40.78465 | -74.10596 | 1983 ft | 169 kts | 206° |
| 2026-04-21 17:30 | 40.77418 | -74.11265 | 1777 ft | 165 kts | 206° |
| 2026-04-21 17:31 | 40.76381 | -74.11927 | 1538 ft | 164 kts | 206° |
| 2026-04-21 17:31 | 40.75379 | -74.12566 | 1340 ft | 151 kts | 206° |
| 2026-04-21 17:31 | 40.74453 | -74.13157 | 1096 ft | 148 kts | 206° |
| 2026-04-21 17:31 | 40.73495 | -74.13768 | 856 ft | 153 kts | 206° |
| 2026-04-21 17:32 | 40.72547 | -74.14373 | 652 ft | 150 kts | 206° |
| 2026-04-21 17:32 | 40.71617 | -74.14967 | 428 ft | 151 kts | 205° |
| 2026-04-21 17:32 | 40.70669 | -74.15579 | 222 ft | 153 kts | 205° |
| 2026-04-21 17:32 | 40.69707 | -74.16190 | 41 ft | 152 kts | 204° |
| 2026-04-21 17:33 | 40.68851 | -74.16730 | 21 ft | 111 kts | 206° |
| 2026-04-21 17:33 | 40.68348 | -74.17050 | 23 ft | 49 kts | 205° |
| 2026-04-21 17:33 | 40.68135 | -74.17184 | 21 ft | 25 kts | 205° |
| 2026-04-21 17:33 | 40.67999 | -74.17307 | 19 ft | 23 kts | 230° |
| 2026-04-21 17:34 | 40.67956 | -74.17502 | 20 ft | 22 kts | 271° |
| 2026-04-21 17:34 | 40.68002 | -74.17692 | 20 ft | 22 kts | 296° |
| 2026-04-21 17:34 | 40.68071 | -74.17860 | 22 ft | 19 kts | 307° |
| 2026-04-21 17:34 | 40.68154 | -74.17997 | 22 ft | 19 kts | 310° |
| 2026-04-21 17:35 | 40.68225 | -74.18106 | 23 ft | 12 kts | 314° |
| 2026-04-21 17:35 | 40.68283 | -74.18171 | 21 ft | 7 kts | 320° |
| 2026-04-21 17:35 | 40.68310 | -74.18201 | 21 ft | 0 kts | 320° |
| 2026-04-21 17:35 | 40.68315 | -74.18206 | 21 ft | 0 kts | 320° |